createdAt,value
2017-11-29T00:00:54.207Z,93197.97
2017-11-29T00:03:21.944Z,93202.73
2017-11-29T00:05:49.762Z,93198.68
2017-11-29T00:08:17.451Z,93195.06
2017-11-29T00:10:45.239Z,93190.43
2017-11-29T00:13:13.021Z,93200.86
2017-11-29T00:15:40.758Z,93191.57
2017-11-29T00:18:08.530Z,93190.08
2017-11-29T00:20:36.221Z,93188.97
2017-11-29T00:23:03.977Z,93187.70
2017-11-29T00:25:31.676Z,93177.26
2017-11-29T00:27:59.780Z,93165.45
2017-11-29T00:30:27.505Z,93162.36
2017-11-29T00:32:55.280Z,93161.72
2017-11-29T00:35:23.037Z,93175.34
2017-11-29T00:37:50.847Z,93173.77
2017-11-29T00:40:18.689Z,93178.42
2017-11-29T00:42:46.398Z,93172.36
2017-11-29T00:45:14.065Z,93167.64
2017-11-29T00:47:41.813Z,93167.81
2017-11-29T00:50:09.501Z,93176.80
2017-11-29T00:52:37.249Z,93184.51
2017-11-29T00:55:05.003Z,93196.74
2017-11-29T00:57:32.839Z,93196.03
2017-11-29T01:00:00.673Z,93192.91
2017-11-29T01:02:28.441Z,93191.77
2017-11-29T01:04:56.316Z,93191.52
2017-11-29T01:07:24.011Z,93194.05
2017-11-29T01:09:51.743Z,93200.92
2017-11-29T01:12:19.468Z,93198.41
2017-11-29T01:14:47.708Z,93195.47
2017-11-29T01:17:15.416Z,93195.16
2017-11-29T01:19:43.131Z,93186.05
2017-11-29T01:22:10.832Z,93190.27
2017-11-29T01:24:38.616Z,93187.23
2017-11-29T01:27:06.380Z,93184.97
2017-11-29T01:29:34.142Z,93188.84
2017-11-29T01:32:01.855Z,93188.02
2017-11-29T01:34:29.595Z,93183.00
2017-11-29T01:36:57.350Z,93182.44
2017-11-29T01:39:25.064Z,93187.45
2017-11-29T01:41:52.846Z,93183.58
2017-11-29T01:44:20.579Z,93187.10
2017-11-29T01:46:48.271Z,93192.52
2017-11-29T01:49:16.095Z,93190.97
2017-11-29T01:51:43.827Z,93188.82
2017-11-29T01:54:11.568Z,93192.83
2017-11-29T01:56:39.348Z,93197.00
2017-11-29T01:59:07.025Z,93193.27
2017-11-29T02:01:34.706Z,93190.53
2017-11-29T02:04:02.452Z,93191.68
2017-11-29T02:06:30.240Z,93193.97
2017-11-29T02:08:58.000Z,93185.78
2017-11-29T02:11:25.774Z,93184.16
2017-11-29T02:13:53.514Z,93183.45
2017-11-29T02:16:21.217Z,93186.13
2017-11-29T02:18:48.984Z,93182.48
2017-11-29T02:21:17.034Z,93179.34
2017-11-29T02:23:44.882Z,93183.66
2017-11-29T02:26:12.689Z,93180.41
2017-11-29T02:28:40.424Z,93180.41
2017-11-29T02:31:08.304Z,93181.50
2017-11-29T02:33:36.118Z,93182.05
2017-11-29T02:36:03.870Z,93184.41
2017-11-29T02:38:31.690Z,93173.84
2017-11-29T02:41:11.013Z,93175.23
2017-11-29T02:43:39.085Z,93176.23
2017-11-29T02:46:06.857Z,93181.33
2017-11-29T02:48:34.763Z,93177.67
2017-11-29T02:51:02.542Z,93178.39
2017-11-29T02:53:30.440Z,93175.52
2017-11-29T02:55:58.335Z,93171.03
2017-11-29T02:58:26.306Z,93168.62
2017-11-29T03:00:54.153Z,93168.75
2017-11-29T03:03:21.936Z,93169.00
2017-11-29T03:05:49.780Z,93170.81
2017-11-29T03:08:17.515Z,93172.36
2017-11-29T03:10:45.245Z,93169.94
2017-11-29T03:13:13.034Z,93176.02
2017-11-29T03:15:40.754Z,93170.28
2017-11-29T03:18:08.492Z,93183.89
2017-11-29T03:20:36.219Z,93179.31
2017-11-29T03:23:03.976Z,93172.98
2017-11-29T03:25:32.617Z,93186.09
2017-11-29T03:28:00.356Z,93188.81
2017-11-29T03:30:28.074Z,93177.90
2017-11-29T03:32:55.823Z,93186.57
2017-11-29T03:35:23.489Z,93186.87
2017-11-29T03:37:51.251Z,93182.57
2017-11-29T03:40:18.935Z,93188.56
2017-11-29T03:42:46.615Z,93190.36
2017-11-29T03:45:14.365Z,93183.93
2017-11-29T03:47:42.140Z,93184.81
2017-11-29T03:50:09.876Z,93187.64
2017-11-29T03:52:37.675Z,93191.45
2017-11-29T03:55:05.370Z,93191.25
2017-11-29T03:57:33.139Z,93193.45
2017-11-29T04:00:00.837Z,93191.46
2017-11-29T04:02:28.553Z,93193.41
2017-11-29T04:04:56.314Z,93196.34
2017-11-29T04:07:24.122Z,93191.16
2017-11-29T04:09:51.926Z,93186.87
2017-11-29T04:12:19.693Z,93189.17
2017-11-29T04:14:47.540Z,93186.87
2017-11-29T04:17:15.255Z,93197.09
2017-11-29T04:19:43.028Z,93192.16
2017-11-29T04:22:10.769Z,93200.27
2017-11-29T04:24:38.556Z,93195.73
2017-11-29T04:27:06.265Z,93194.50
2017-11-29T04:29:34.003Z,93191.20
2017-11-29T04:32:01.825Z,93192.12
2017-11-29T04:34:29.552Z,93189.03
2017-11-29T04:36:57.307Z,93187.33
2017-11-29T04:39:25.155Z,93191.38
2017-11-29T04:41:52.889Z,93193.70
2017-11-29T04:44:20.652Z,93186.13
2017-11-29T04:46:48.357Z,93183.36
2017-11-29T04:49:16.150Z,93183.88
2017-11-29T04:51:45.011Z,93187.41
2017-11-29T04:54:12.852Z,93181.11
2017-11-29T04:56:40.600Z,93182.44
2017-11-29T04:59:08.761Z,93180.50
2017-11-29T05:01:36.511Z,93183.98
2017-11-29T05:04:04.331Z,93186.63
2017-11-29T05:06:32.246Z,93204.84
2017-11-29T05:09:00.067Z,93203.61
2017-11-29T05:11:27.878Z,93199.67
2017-11-29T05:13:55.770Z,93195.17
2017-11-29T05:16:24.719Z,93190.05
2017-11-29T05:18:52.473Z,93192.66
2017-11-29T05:21:20.351Z,93185.39
2017-11-29T05:23:48.086Z,93169.59
2017-11-29T05:26:15.958Z,93170.86
2017-11-29T05:28:43.697Z,93161.61
2017-11-29T05:31:11.584Z,93156.90
2017-11-29T05:33:39.368Z,93162.98
2017-11-29T05:36:07.242Z,93157.35
2017-11-29T05:38:35.044Z,93156.42
2017-11-29T05:41:02.967Z,93149.12
2017-11-29T05:43:30.851Z,93145.28
2017-11-29T05:45:58.692Z,93151.49
2017-11-29T05:48:26.652Z,93147.75
2017-11-29T05:50:54.435Z,93147.61
2017-11-29T05:53:22.381Z,93157.73
2017-11-29T05:55:50.163Z,93160.34
2017-11-29T05:58:17.985Z,93163.16
2017-11-29T06:00:45.740Z,93163.95
2017-11-29T06:03:13.610Z,93154.66
2017-11-29T06:05:41.615Z,93166.23
2017-11-29T06:08:09.428Z,93165.36
2017-11-29T06:10:37.175Z,93169.19
2017-11-29T06:13:04.931Z,93170.51
2017-11-29T06:15:33.544Z,93171.04
2017-11-29T06:18:01.326Z,93170.72
2017-11-29T06:20:29.106Z,93181.67
2017-11-29T06:22:56.971Z,93179.83
2017-11-29T06:25:24.757Z,93175.61
2017-11-29T06:27:52.507Z,93180.94
2017-11-29T06:30:20.327Z,93185.43
2017-11-29T06:32:48.092Z,93188.12
2017-11-29T06:35:15.798Z,93181.87
2017-11-29T06:37:43.581Z,93180.86
2017-11-29T06:40:11.308Z,93180.90
2017-11-29T06:42:39.045Z,93182.60
2017-11-29T06:45:06.800Z,93186.20
2017-11-29T06:47:34.595Z,93189.56
2017-11-29T06:50:02.274Z,93188.86
2017-11-29T06:52:30.021Z,93185.70
2017-11-29T06:54:57.734Z,93194.50
2017-11-29T06:57:25.574Z,93195.64
2017-11-29T06:59:53.271Z,93197.14
2017-11-29T07:02:21.058Z,93196.96
2017-11-29T07:04:48.764Z,93197.06
2017-11-29T07:07:16.518Z,93198.16
2017-11-29T07:09:44.359Z,93190.77
2017-11-29T07:12:12.062Z,93188.55
2017-11-29T07:14:39.762Z,93189.38
2017-11-29T07:17:07.529Z,93187.30
2017-11-29T07:19:35.364Z,93190.80
2017-11-29T07:22:03.101Z,93190.75
2017-11-29T07:24:30.844Z,93197.98
2017-11-29T07:26:58.542Z,93190.97
2017-11-29T07:29:27.610Z,93196.00
2017-11-29T07:31:55.384Z,93198.81
2017-11-29T07:34:23.137Z,93198.15
2017-11-29T07:36:50.836Z,93198.67
2017-11-29T07:39:18.673Z,93189.44
2017-11-29T07:41:46.385Z,93191.72
2017-11-29T07:44:14.131Z,93198.73
2017-11-29T07:46:41.940Z,93198.51
2017-11-29T07:49:09.709Z,93191.50
2017-11-29T07:51:37.513Z,93198.39
2017-11-29T07:54:05.326Z,93196.63
2017-11-29T07:56:33.023Z,93202.49
2017-11-29T07:59:00.819Z,93193.89
2017-11-29T08:01:28.567Z,93196.88
2017-11-29T08:03:56.281Z,93193.18
2017-11-29T08:06:24.117Z,93190.28
2017-11-29T08:08:51.954Z,93176.10
2017-11-29T08:11:19.750Z,93170.98
2017-11-29T08:13:47.555Z,93167.42
2017-11-29T08:16:15.280Z,93167.82
2017-11-29T08:18:43.100Z,93181.42
2017-11-29T08:21:10.968Z,93186.91
2017-11-29T08:23:38.838Z,93185.47
2017-11-29T08:26:06.635Z,93186.97
2017-11-29T08:28:34.435Z,93185.23
2017-11-29T08:31:02.230Z,93188.49
2017-11-29T08:33:30.053Z,93193.39
2017-11-29T08:35:57.829Z,93194.36
2017-11-29T08:38:25.576Z,93193.33
2017-11-29T08:40:53.392Z,93195.24
2017-11-29T08:43:21.159Z,93188.05
2017-11-29T08:45:48.951Z,93180.69
2017-11-29T08:48:16.718Z,93179.80
2017-11-29T08:50:44.564Z,93180.45
2017-11-29T08:53:12.337Z,93173.47
2017-11-29T08:55:40.154Z,93177.03
2017-11-29T08:58:07.959Z,93172.09
2017-11-29T09:00:35.737Z,93162.10
2017-11-29T09:03:03.577Z,93162.74
2017-11-29T09:05:31.381Z,93162.40
2017-11-29T09:07:59.192Z,93159.62
2017-11-29T09:10:26.944Z,93157.71
2017-11-29T09:12:54.684Z,93159.37
2017-11-29T09:15:22.498Z,93163.23
2017-11-29T09:17:50.449Z,93158.44
2017-11-29T09:20:18.221Z,93161.55
2017-11-29T09:22:46.029Z,93156.02
2017-11-29T09:25:13.776Z,93153.95
2017-11-29T09:27:41.531Z,93143.20
2017-11-29T09:30:09.418Z,93147.38
2017-11-29T09:32:37.343Z,93140.00
2017-11-29T09:35:05.196Z,93135.88
2017-11-29T09:37:33.035Z,93132.16
2017-11-29T09:40:00.865Z,93125.64
2017-11-29T09:42:28.632Z,93116.62
2017-11-29T09:44:56.472Z,93110.19
2017-11-29T09:47:24.381Z,93097.41
2017-11-29T09:49:52.209Z,93101.34
2017-11-29T09:52:20.176Z,93093.43
2017-11-29T09:54:47.997Z,93097.16
2017-11-29T09:57:16.990Z,93091.62
2017-11-29T09:59:44.775Z,93096.23
2017-11-29T10:02:13.406Z,93094.75
2017-11-29T10:04:41.227Z,93094.28
2017-11-29T10:07:09.139Z,93087.99
2017-11-29T10:09:37.846Z,93088.60
2017-11-29T10:12:06.380Z,93091.72
2017-11-29T10:14:34.253Z,93096.61
2017-11-29T10:17:02.087Z,93088.45
2017-11-29T10:19:30.088Z,93079.67
2017-11-29T10:21:57.908Z,93076.01
2017-11-29T10:24:25.794Z,93068.22
2017-11-29T10:26:53.625Z,93058.08
2017-11-29T10:29:21.473Z,93061.19
2017-11-29T10:31:49.306Z,93069.77
2017-11-29T10:34:17.204Z,93071.14
2017-11-29T10:36:45.087Z,93074.09
2017-11-29T10:39:12.909Z,93074.27
2017-11-29T10:41:40.761Z,93072.26
2017-11-29T10:44:08.551Z,93073.23
2017-11-29T10:46:36.465Z,93067.81
2017-11-29T10:49:04.360Z,93063.41
2017-11-29T10:51:32.179Z,93060.96
2017-11-29T10:54:00.045Z,93064.98
2017-11-29T10:56:27.830Z,93064.78
2017-11-29T10:58:55.628Z,93067.05
2017-11-29T11:01:23.506Z,93069.50
2017-11-29T11:03:51.258Z,93073.95
2017-11-29T11:06:19.124Z,93068.45
2017-11-29T11:08:47.016Z,93063.56
2017-11-29T11:11:14.802Z,93062.09
2017-11-29T11:13:42.901Z,93062.44
2017-11-29T11:16:10.838Z,93054.56
2017-11-29T11:18:38.726Z,93053.26
2017-11-29T11:21:06.540Z,93048.55
2017-11-29T11:23:34.310Z,93045.30
2017-11-29T11:26:02.139Z,93041.71
2017-11-29T11:28:29.908Z,93031.02
2017-11-29T11:30:57.694Z,93027.40
2017-11-29T11:33:25.603Z,93028.86
2017-11-29T11:35:53.458Z,93023.35
2017-11-29T11:38:21.192Z,93017.76
2017-11-29T11:40:49.015Z,93019.74
2017-11-29T11:43:16.810Z,93011.30
2017-11-29T11:45:44.594Z,93010.25
2017-11-29T11:48:12.409Z,93004.61
2017-11-29T11:50:41.475Z,93003.11
2017-11-29T11:53:09.274Z,93000.35
2017-11-29T11:55:37.546Z,92998.56
2017-11-29T11:58:05.401Z,92997.22
2017-11-29T12:00:33.236Z,92996.39
2017-11-29T12:03:01.012Z,92996.34
2017-11-29T12:05:28.842Z,92987.98
2017-11-29T12:07:57.193Z,92991.87
2017-11-29T12:10:25.370Z,92980.77
2017-11-29T12:12:53.199Z,92984.47
2017-11-29T12:15:21.567Z,92976.84
2017-11-29T12:17:49.423Z,92978.30
2017-11-29T12:20:17.320Z,92971.66
2017-11-29T12:22:45.247Z,92976.20
2017-11-29T12:25:13.035Z,92971.31
2017-11-29T12:27:40.853Z,92969.45
2017-11-29T12:30:08.663Z,92967.41
2017-11-29T12:32:36.539Z,92962.62
2017-11-29T12:35:04.305Z,92967.59
2017-11-29T12:37:32.076Z,92957.70
2017-11-29T12:39:59.854Z,92953.09
2017-11-29T12:42:27.742Z,92943.30
2017-11-29T12:44:55.514Z,92949.34
2017-11-29T12:47:23.362Z,92942.97
2017-11-29T12:50:02.917Z,92943.32
2017-11-29T12:52:30.722Z,92937.19
2017-11-29T12:54:58.731Z,92936.20
2017-11-29T12:57:27.580Z,92934.31
2017-11-29T12:59:55.325Z,92932.06
2017-11-29T13:02:23.082Z,92922.42
2017-11-29T13:04:50.902Z,92926.25
2017-11-29T13:07:18.788Z,92914.69
2017-11-29T13:09:47.260Z,92911.05
2017-11-29T13:12:15.132Z,92903.88
2017-11-29T13:14:43.278Z,92900.64
2017-11-29T13:17:11.084Z,92895.71
2017-11-29T13:19:38.938Z,92896.71
2017-11-29T13:22:06.733Z,92907.55
2017-11-29T13:24:34.717Z,92913.84
2017-11-29T13:27:02.543Z,92915.58
2017-11-29T13:29:30.291Z,92921.22
2017-11-29T13:31:58.075Z,92921.02
2017-11-29T13:34:26.781Z,92927.05
2017-11-29T13:36:54.659Z,92925.67
2017-11-29T13:39:22.662Z,92922.47
2017-11-29T13:41:50.872Z,92926.48
2017-11-29T13:44:18.713Z,92931.55
2017-11-29T13:46:46.447Z,92927.26
2017-11-29T13:49:14.298Z,92928.50
2017-11-29T13:51:42.164Z,92926.97
2017-11-29T13:54:10.005Z,92924.20
2017-11-29T13:56:37.885Z,92928.08
2017-11-29T13:59:05.848Z,92928.75
2017-11-29T14:01:33.790Z,92926.33
2017-11-29T14:04:01.731Z,92923.88
2017-11-29T14:06:29.504Z,92917.74
2017-11-29T14:08:57.308Z,92912.01
2017-11-29T14:11:25.079Z,92915.47
2017-11-29T14:13:52.869Z,92910.80
2017-11-29T14:16:20.705Z,92913.52
2017-11-29T14:18:48.440Z,92907.27
2017-11-29T14:21:16.187Z,92907.49
2017-11-29T14:23:43.969Z,92902.36
2017-11-29T14:26:11.751Z,92909.11
2017-11-29T14:28:39.473Z,92912.16
2017-11-29T14:31:07.250Z,92916.20
2017-11-29T14:33:35.842Z,92917.38
2017-11-29T14:36:03.711Z,92916.56
2017-11-29T14:38:31.466Z,92917.37
2017-11-29T14:40:59.271Z,92918.36
2017-11-29T14:43:27.087Z,92917.45
2017-11-29T14:45:54.920Z,92923.61
2017-11-29T14:48:23.775Z,92916.42
2017-11-29T14:50:51.549Z,92921.35
2017-11-29T14:53:19.703Z,92921.55
2017-11-29T14:55:47.509Z,92917.76
2017-11-29T14:58:15.271Z,92915.64
2017-11-29T15:00:43.109Z,92917.16
2017-11-29T15:03:10.893Z,92914.81
2017-11-29T15:05:38.755Z,92917.05
2017-11-29T15:08:06.494Z,92913.19
2017-11-29T15:10:35.476Z,92914.08
2017-11-29T15:13:05.762Z,92910.34
2017-11-29T15:15:33.506Z,92914.87
2017-11-29T15:18:01.286Z,92921.19
2017-11-29T15:20:30.049Z,92920.80
2017-11-29T15:22:57.776Z,92921.11
2017-11-29T15:25:26.496Z,92919.24
2017-11-29T15:27:54.329Z,92921.61
2017-11-29T15:30:22.171Z,92917.41
2017-11-29T15:32:50.079Z,92911.69
2017-11-29T15:35:17.787Z,92912.17
2017-11-29T15:37:45.596Z,92904.64
2017-11-29T15:40:13.403Z,92906.31
2017-11-29T15:42:41.234Z,92909.72
2017-11-29T15:45:08.972Z,92904.39
2017-11-29T15:47:39.174Z,92912.39
2017-11-29T15:50:06.964Z,92909.32
2017-11-29T15:52:35.539Z,92909.44
2017-11-29T15:55:03.355Z,92912.80
2017-11-29T15:57:31.200Z,92919.02
2017-11-29T15:59:59.030Z,92921.47
2017-11-29T16:02:26.769Z,92920.69
2017-11-29T16:04:54.628Z,92915.69
2017-11-29T16:07:22.453Z,92917.12
2017-11-29T16:09:50.183Z,92920.58
2017-11-29T16:12:18.091Z,92918.80
2017-11-29T16:14:45.837Z,92921.67
2017-11-29T16:17:13.668Z,92924.91
2017-11-29T16:19:41.797Z,92922.27
2017-11-29T16:22:09.635Z,92927.09
2017-11-29T16:24:37.373Z,92922.95
2017-11-29T16:27:05.176Z,92929.16
2017-11-29T16:29:32.989Z,92922.20
2017-11-29T16:32:00.883Z,92922.21
2017-11-29T16:34:28.706Z,92917.28
2017-11-29T16:36:56.470Z,92920.73
2017-11-29T16:39:24.207Z,92915.80
2017-11-29T16:41:53.181Z,92916.49
2017-11-29T16:44:21.534Z,92915.41
2017-11-29T16:46:49.376Z,92917.58
2017-11-29T16:49:17.260Z,92913.14
2017-11-29T16:51:45.031Z,92911.17
2017-11-29T16:54:13.676Z,92906.38
2017-11-29T16:56:41.579Z,92904.41
2017-11-29T16:59:09.288Z,92906.28
2017-11-29T17:01:37.079Z,92907.77
2017-11-29T17:04:04.884Z,92908.61
2017-11-29T17:06:32.763Z,92903.72
2017-11-29T17:09:00.582Z,92897.91
2017-11-29T17:11:28.443Z,92899.28
2017-11-29T17:13:56.211Z,92893.37
2017-11-29T17:16:24.356Z,92896.95
2017-11-29T17:18:52.261Z,92886.02
2017-11-29T17:21:20.012Z,92880.55
2017-11-29T17:23:47.843Z,92888.54
2017-11-29T17:26:15.610Z,92890.55
2017-11-29T17:28:43.377Z,92891.17
2017-11-29T17:31:11.180Z,92882.86
2017-11-29T17:33:39.118Z,92885.13
2017-11-29T17:36:06.969Z,92879.31
2017-11-29T17:38:34.693Z,92880.98
2017-11-29T17:41:02.458Z,92874.19
2017-11-29T17:43:30.237Z,92876.06
2017-11-29T17:45:57.961Z,92875.37
2017-11-29T17:48:25.723Z,92869.75
2017-11-29T17:50:53.574Z,92869.27
2017-11-29T17:53:21.453Z,92860.09
2017-11-29T17:55:51.611Z,92856.45
2017-11-29T17:58:19.690Z,92858.03
2017-11-29T18:00:47.489Z,92858.45
2017-11-29T18:03:15.457Z,92860.92
2017-11-29T18:05:43.304Z,92863.48
2017-11-29T18:08:11.015Z,92867.39
2017-11-29T18:10:38.800Z,92867.48
2017-11-29T18:13:07.501Z,92865.97
2017-11-29T18:15:36.175Z,92863.05
2017-11-29T18:18:04.263Z,92865.02
2017-11-29T18:20:32.353Z,92860.20
2017-11-29T18:23:00.792Z,92853.79
2017-11-29T18:25:28.510Z,92858.03
2017-11-29T18:27:56.308Z,92852.77
2017-11-29T18:30:24.054Z,92851.09
2017-11-29T18:32:51.819Z,92843.74
2017-11-29T18:35:19.621Z,92848.42
2017-11-29T18:37:47.415Z,92851.58
2017-11-29T18:40:15.177Z,92854.09
2017-11-29T18:42:42.989Z,92857.97
2017-11-29T18:45:11.573Z,92854.48
2017-11-29T18:47:39.370Z,92857.73
2017-11-29T18:50:08.002Z,92857.53
2017-11-29T18:52:35.745Z,92861.57
2017-11-29T18:55:03.518Z,92863.11
2017-11-29T18:57:31.357Z,92859.89
2017-11-29T18:59:59.278Z,92851.77
2017-11-29T19:02:27.096Z,92848.95
2017-11-29T19:04:54.897Z,92853.40
2017-11-29T19:07:22.753Z,92852.91
2017-11-29T19:09:50.666Z,92854.48
2017-11-29T19:12:18.496Z,92850.73
2017-11-29T19:14:46.251Z,92851.72
2017-11-29T19:17:14.030Z,92848.47
2017-11-29T19:19:41.823Z,92844.03
2017-11-29T19:22:09.561Z,92839.70
2017-11-29T19:24:37.356Z,92835.23
2017-11-29T19:27:05.194Z,92840.73
2017-11-29T19:29:33.008Z,92846.11
2017-11-29T19:32:00.746Z,92840.88
2017-11-29T19:34:29.685Z,92839.80
2017-11-29T19:36:57.535Z,92840.82
2017-11-29T19:39:25.846Z,92842.80
2017-11-29T19:41:53.668Z,92844.47
2017-11-29T19:44:22.186Z,92845.91
2017-11-29T19:46:49.902Z,92845.91
2017-11-29T19:49:17.617Z,92843.34
2017-11-29T19:51:46.241Z,92847.19
2017-11-29T19:54:14.612Z,92842.36
2017-11-29T19:56:42.515Z,92844.59
2017-11-29T19:59:10.395Z,92845.87
2017-11-29T20:01:39.382Z,92839.79
2017-11-29T20:04:07.252Z,92835.91
2017-11-29T20:06:35.163Z,92831.67
2017-11-29T20:09:03.722Z,92830.59
2017-11-29T20:11:31.567Z,92825.11
2017-11-29T20:14:00.443Z,92831.17
2017-11-29T20:16:31.209Z,92829.09
2017-11-29T20:18:59.523Z,92826.14
2017-11-29T20:21:27.363Z,92820.72
2017-11-29T20:23:55.309Z,92818.36
2017-11-29T20:26:23.202Z,92817.24
2017-11-29T20:28:52.257Z,92809.50
2017-11-29T20:31:20.149Z,92810.09
2017-11-29T20:33:48.066Z,92813.14
2017-11-29T20:36:16.102Z,92812.30
2017-11-29T20:38:44.068Z,92818.46
2017-11-29T20:41:11.772Z,92811.11
2017-11-29T20:43:39.824Z,92816.98
2017-11-29T20:46:07.768Z,92813.34
2017-11-29T20:48:36.107Z,92806.14
2017-11-29T20:51:04.018Z,92803.34
2017-11-29T20:53:31.901Z,92801.87
2017-11-29T20:55:59.768Z,92804.82
2017-11-29T20:58:27.853Z,92803.15
2017-11-29T21:00:55.711Z,92808.75
2017-11-29T21:03:23.973Z,92799.89
2017-11-29T21:05:51.741Z,92790.37
2017-11-29T21:08:20.937Z,92796.98
2017-11-29T21:10:50.283Z,92795.56
2017-11-29T21:13:18.116Z,92793.09
2017-11-29T21:15:45.970Z,92798.62
2017-11-29T21:18:13.855Z,92802.45
2017-11-29T21:20:41.667Z,92801.80
2017-11-29T21:23:09.463Z,92799.90
2017-11-29T21:25:37.388Z,92802.55
2017-11-29T21:28:05.125Z,92797.04
2017-11-29T21:30:32.862Z,92800.63
2017-11-29T21:33:00.995Z,92796.78
2017-11-29T21:35:28.803Z,92795.27
2017-11-29T21:37:56.553Z,92796.09
2017-11-29T21:40:24.446Z,92795.60
2017-11-29T21:42:52.200Z,92795.56
2017-11-29T21:45:20.065Z,92790.93
2017-11-29T21:47:47.853Z,92792.66
2017-11-29T21:50:15.683Z,92785.41
2017-11-29T21:52:43.516Z,92786.48
2017-11-29T21:55:11.635Z,92768.16
2017-11-29T21:57:39.391Z,92762.42
2017-11-29T22:00:07.265Z,92764.98
2017-11-29T22:02:34.960Z,92764.98
2017-11-29T22:05:02.700Z,92769.02
2017-11-29T22:07:30.602Z,92776.50
2017-11-29T22:09:58.441Z,92773.84
2017-11-29T22:12:26.294Z,92775.20
2017-11-29T22:14:54.813Z,92764.91
2017-11-29T22:17:22.598Z,92773.20
2017-11-29T22:19:50.307Z,92772.11
2017-11-29T22:22:18.050Z,92762.75
2017-11-29T22:24:45.869Z,92762.64
2017-11-29T22:27:13.688Z,92758.30
2017-11-29T22:29:41.453Z,92755.47
2017-11-29T22:32:09.248Z,92752.27
2017-11-29T22:34:36.956Z,92755.95
2017-11-29T22:37:04.673Z,92752.61
2017-11-29T22:39:32.575Z,92751.82
2017-11-29T22:42:00.251Z,92754.14
2017-11-29T22:44:28.156Z,92751.19
2017-11-29T22:46:55.897Z,92745.37
2017-11-29T22:49:23.617Z,92737.59
2017-11-29T22:51:51.395Z,92746.27
2017-11-29T22:54:19.115Z,92738.95
2017-11-29T22:56:46.885Z,92735.76
2017-11-29T22:59:14.671Z,92733.58
2017-11-29T23:01:42.413Z,92735.27
2017-11-29T23:04:10.144Z,92743.88
2017-11-29T23:06:37.941Z,92732.80
2017-11-29T23:09:05.642Z,92738.02
2017-11-29T23:11:33.494Z,92726.69
2017-11-29T23:14:01.293Z,92710.23
2017-11-29T23:16:29.067Z,92708.37
2017-11-29T23:18:56.910Z,92704.61
2017-11-29T23:21:25.043Z,92700.77
2017-11-29T23:23:52.950Z,92699.37
2017-11-29T23:26:20.811Z,92700.53
2017-11-29T23:28:48.573Z,92692.36
2017-11-29T23:31:16.331Z,92689.52
2017-11-29T23:33:44.088Z,92689.61
2017-11-29T23:36:12.958Z,92688.81
2017-11-29T23:38:40.719Z,92684.95
2017-11-29T23:41:08.427Z,92688.96
2017-11-29T23:43:36.226Z,92689.53
2017-11-29T23:46:03.971Z,92691.84
2017-11-29T23:48:31.719Z,92685.39
2017-11-29T23:50:59.855Z,92688.33
2017-11-29T23:53:27.584Z,92680.82
2017-11-29T23:55:55.364Z,92678.03
2017-11-29T23:58:23.121Z,92677.61
